| time (UTC) | temp C | wind direction | speed KPH | gust KPH | rain 1hr cm | rain 24hr cm | rain mn cm | humidity % | barometer mb |
| 20260906041803 | 13 | 166 | 1.6 | 3.2 | 0.05 | 0.03 | 0.03 | 98 | 1019.4 |
| 20260906041258 | 13 | 134 | 0.0 | 1.6 | 0.00 | 0.00 | 0.00 | 98 | 1019.5 |
| 20260906040754 | 13 | 256 | 0.0 | 0.0 | 0.05 | 0.00 | 0.00 | 98 | 1019.3 |
| 20260906040249 | 13 | 112 | 0.0 | 1.6 | 0.05 | 0.00 | 0.00 | 98 | 1019.4 |
| 20260906035744 | 14 | 186 | 1.6 | 4.8 | 0.00 | 0.76 | 0.76 | 98 | 1019.2 |
| 20260906035240 | 14 | 20 | 3.2 | 4.8 | 0.00 | 0.76 | 0.76 | 98 | 1019.3 |
| 20260906034740 | 14 | 36 | 0.0 | 4.8 | 0.00 | 0.76 | 0.76 | 98 | 1019.1 |
| 20260906034235 | 15 | 100 | 0.0 | 3.2 | 0.05 | 0.76 | 0.76 | 98 | 1019.2 |
| 20260906033730 | 15 | 37 | 0.0 | 3.2 | 0.00 | 0.76 | 0.76 | 98 | 1019.1 |
| 20260906033230 | 15 | 107 | 0.0 | 0.0 | 0.00 | 0.76 | 0.76 | 98 | 1019.0 |
| 20260906032727 | 15 | 50 | 0.0 | 1.6 | 0.00 | 0.76 | 0.76 | 98 | 1019.1 |
| 20260906032226 | 15 | 56 | 0.0 | 1.6 | 0.00 | 0.76 | 0.76 | 98 | 1019.1 |
| 20260906031722 | 15 | 322 | 0.0 | 1.6 | 0.00 | 0.76 | 0.76 | 98 | 1019.1 |
| 20260906031218 | 15 | 229 | 0.0 | 1.6 | 0.00 | 0.76 | 0.76 | 98 | 1019.1 |
| 20260906030717 | 15 | 38 | 1.6 | 3.2 | 0.00 | 0.76 | 0.76 | 98 | 1019.1 |
| 20260906030212 | 15 | 352 | 0.0 | 1.6 | 0.00 | 0.76 | 0.76 | 98 | 1019.3 |
| 20260906025712 | 15 | 77 | 0.0 | 3.2 | 0.00 | 0.76 | 0.76 | 98 | 1019.3 |
| 20260906025212 | 15 | 55 | 0.0 | 0.0 | 0.00 | 0.76 | 0.76 | 98 | 1019.2 |
| 20260906024711 | 15 | 55 | 0.0 | 0.0 | 0.00 | 0.76 | 0.76 | 98 | 1019.3 |
| 20260906024210 | 15 | 132 | 1.6 | 1.6 | 0.00 | 0.76 | 0.76 | 98 | 1019.3 |
| 20260906023707 | 15 | 89 | 0.0 | 1.6 | 0.05 | 0.76 | 0.76 | 98 | 1019.2 |
| 20260906023206 | 15 | 55 | 0.0 | 1.6 | 0.05 | 0.76 | 0.76 | 98 | 1019.2 |
| 20260906022701 | 15 | 76 | 1.6 | 3.2 | 0.00 | 0.74 | 0.74 | 98 | 1019.3 |
| 20260906022158 | 15 | 75 | 1.6 | 3.2 | 0.00 | 0.74 | 0.74 | 98 | 1019.2 |
| 20260906021654 | 15 | 69 | 0.0 | 1.6 | 0.00 | 0.74 | 0.74 | 98 | 1019.1 |
| 20260906021152 | 15 | 89 | 0.0 | 1.6 | 0.00 | 0.74 | 0.74 | 98 | 1019.1 |
| 20260906020647 | 15 | 186 | 0.0 | 1.6 | 0.05 | 0.74 | 0.74 | 98 | 1019.2 |
| 20260906020142 | 15 | 89 | 0.0 | 3.2 | 0.13 | 0.74 | 0.74 | 98 | 1019.1 |
| 20260906015642 | 15 | 50 | 0.0 | 1.6 | 0.05 | 0.74 | 0.74 | 98 | 1019.1 |
| 20260906015141 | 15 | 322 | 0.0 | 0.0 | 0.13 | 0.74 | 0.74 | 98 | 1018.9 |
| 20260906014641 | 15 | 217 | 0.0 | 0.0 | 0.18 | 0.71 | 0.71 | 98 | 1018.8 |
| 20260906014137 | 15 | 123 | 1.6 | 3.2 | 0.05 | 0.71 | 0.71 | 98 | 1018.9 |
| 20260906013632 | 15 | 286 | 1.6 | 3.2 | 0.00 | 0.69 | 0.69 | 98 | 1019.0 |
| 20260906013128 | 15 | 132 | 0.0 | 3.2 | 0.00 | 0.69 | 0.69 | 98 | 1018.9 |
| 20260906012627 | 15 | 113 | 3.2 | 3.2 | 0.05 | 0.69 | 0.69 | 98 | 1018.9 |
| 20260906012122 | 15 | 34 | 3.2 | 3.2 | 0.05 | 0.69 | 0.69 | 98 | 1019.1 |
| 20260906011619 | 15 | 18 | 1.6 | 3.2 | 0.05 | 0.69 | 0.69 | 98 | 1019.0 |
| 20260906011119 | 15 | 46 | 3.2 | 3.2 | 0.05 | 0.69 | 0.69 | 98 | 1019.0 |
| 20260906010614 | 15 | 56 | 1.6 | 1.6 | 0.00 | 0.66 | 0.66 | 98 | 1019.2 |
| 20260906010110 | 15 | 204 | 0.0 | 3.2 | 0.00 | 0.66 | 0.66 | 98 | 1019.1 |
| 20260906005609 | 15 | 220 | 3.2 | 3.2 | 0.00 | 0.66 | 0.66 | 98 | 1019.2 |
| 20260906005109 | 15 | 63 | 0.0 | 3.2 | 0.00 | 0.66 | 0.66 | 98 | 1018.9 |
| 20260906004608 | 15 | 32 | 1.6 | 3.2 | 0.00 | 0.66 | 0.66 | 98 | 1018.9 |
| 20260906004103 | 15 | 14 | 1.6 | 3.2 | 0.00 | 0.66 | 0.66 | 97 | 1018.9 |
| 20260906003558 | 15 | 89 | 0.0 | 1.6 | 0.05 | 0.66 | 0.66 | 97 | 1018.6 |
| 20260906003055 | 15 | 36 | 3.2 | 3.2 | 0.48 | 0.66 | 0.66 | 97 | 1018.7 |
| 20260906002555 | 15 | 89 | 3.2 | 3.2 | 1.32 | 0.66 | 0.66 | 97 | 1018.6 |
| 20260906002049 | 15 | 97 | 1.6 | 3.2 | 0.97 | 0.56 | 0.56 | 97 | 1018.7 |
| 20260906001544 | 15 | 135 | 1.6 | 3.2 | 0.53 | 0.43 | 0.43 | 97 | 1018.5 |
| 20260906001039 | 15 | 197 | 1.6 | 3.2 | 0.84 | 0.38 | 0.38 | 96 | 1018.5 |
| 20260906000535 | 15 | 134 | 0.0 | 3.2 | 0.71 | 0.33 | 0.33 | 96 | 1018.3 |
| 20260906000030 | 15 | 161 | 0.0 | 1.6 | 0.23 | 0.25 | 0.25 | 96 | 1018.3 |
| 20260905235529 | 15 | 105 | 0.0 | 3.2 | 0.13 | 0.23 | 0.23 | 96 | 1018.2 |
| 20260905235025 | 16 | 140 | 3.2 | 3.2 | 0.00 | 0.20 | 0.20 | 96 | 1018.2 |
| 20260905234521 | 16 | 89 | 0.0 | 3.2 | 0.00 | 0.20 | 0.20 | 96 | 1017.8 |
| 20260905234021 | 16 | 77 | 0.0 | 3.2 | 0.05 | 0.20 | 0.20 | 96 | 1018.0 |
| 20260905233515 | 16 | 68 | 0.0 | 3.2 | 0.00 | 0.18 | 0.18 | 96 | 1018.1 |
| 20260905233015 | 16 | 6 | 3.2 | 6.4 | 0.00 | 0.18 | 0.18 | 96 | 1017.9 |
| 20260905232511 | 16 | 82 | 3.2 | 4.8 | 0.00 | 0.18 | 0.18 | 96 | 1018.0 |
| 20260905232006 | 16 | 105 | 1.6 | 3.2 | 0.00 | 0.18 | 0.18 | 96 | 1018.0 |
| 20260905231501 | 16 | 61 | 1.6 | 4.8 | 0.00 | 0.18 | 0.18 | 97 | 1017.7 |
| 20260905230958 | 16 | 101 | 3.2 | 3.2 | 0.00 | 0.18 | 0.18 | 97 | 1017.6 |
| 20260905230456 | 16 | 107 | 1.6 | 3.2 | 0.00 | 0.18 | 0.18 | 96 | 1017.7 |
| 20260905225954 | 17 | 89 | 0.0 | 3.2 | 0.00 | 0.18 | 0.18 | 96 | 1017.6 |
| 20260905225450 | 17 | 142 | 0.0 | 1.6 | 0.00 | 0.18 | 0.18 | 96 | 1017.6 |
| 20260905224945 | 17 | 32 | 0.0 | 0.0 | 0.00 | 0.18 | 0.18 | 96 | 1017.6 |
| 20260905224440 | 17 | 43 | 1.6 | 3.2 | 0.00 | 0.18 | 0.18 | 95 | 1017.4 |
| 20260905223939 | 17 | 47 | 1.6 | 3.2 | 0.00 | 0.18 | 0.18 | 95 | 1017.3 |
| 20260905223437 | 17 | 66 | 0.0 | 1.6 | 0.00 | 0.18 | 0.18 | 95 | 1017.6 |
| 20260905222932 | 17 | 119 | 0.0 | 0.0 | 0.00 | 0.18 | 0.18 | 94 | 1017.3 |
| 20260905222432 | 17 | 48 | 0.0 | 1.6 | 0.00 | 0.18 | 0.18 | 94 | 1017.2 |
| 20260905221927 | 17 | 24 | 0.0 | 1.6 | 0.00 | 0.18 | 0.18 | 94 | 1017.4 |
| 20260905221424 | 17 | 115 | 1.6 | 3.2 | 0.00 | 0.18 | 0.18 | 94 | 1017.7 |
| 20260905220920 | 17 | 299 | 0.0 | 1.6 | 0.05 | 0.18 | 0.18 | 94 | 1017.3 |
| 20260905220416 | 17 | 129 | 0.0 | 1.6 | 0.05 | 0.18 | 0.18 | 94 | 1017.3 |
| 20260905215915 | 17 | 129 | 0.0 | 1.6 | 0.05 | 0.18 | 0.18 | 93 | 1017.1 |
| 20260905215410 | 17 | 148 | 0.0 | 1.6 | 0.13 | 0.18 | 0.18 | 93 | 1017.3 |
| 20260905214907 | 18 | 345 | 0.0 | 0.0 | 0.36 | 0.18 | 0.18 | 92 | 1017.3 |
| 20260905214402 | 18 | 55 | 0.0 | 1.6 | 0.48 | 0.15 | 0.15 | 91 | 1017.1 |
| 20260905213857 | 18 | 47 | 1.6 | 3.2 | 0.43 | 0.10 | 0.10 | 89 | 1017.2 |
| 20260905213353 | 18 | 347 | 0.0 | 3.2 | 0.05 | 0.05 | 0.05 | 86 | 1017.1 |
| 20260905212853 | 19 | 339 | 0.0 | 4.8 | 0.00 | 0.05 | 0.05 | 83 | 1017.2 |
| 20260905212348 | 20 | 0 | 0.0 | 1.6 | 0.00 | 0.05 | 0.05 | 81 | 1016.8 |
| 20260905211847 | 20 | 23 | 0.0 | 4.8 | 0.00 | 0.05 | 0.05 | 80 | 1016.7 |
| 20260905211344 | 20 | 33 | 3.2 | 3.2 | 0.00 | 0.05 | 0.05 | 82 | 1016.8 |
| 20260905210839 | 20 | 38 | 1.6 | 3.2 | 0.00 | 0.05 | 0.05 | 83 | 1016.7 |
| 20260905210340 | 20 | 33 | 1.6 | 1.6 | 0.00 | 0.05 | 0.05 | 84 | 1016.6 |
| 20260905205838 | 20 | 32 | 1.6 | 3.2 | 0.00 | 0.05 | 0.05 | 83 | 1016.6 |
| 20260905205333 | 20 | 106 | 3.2 | 3.2 | 0.00 | 0.05 | 0.05 | 83 | 1016.7 |
| 20260905204832 | 20 | 197 | 3.2 | 3.2 | 0.00 | 0.05 | 0.05 | 88 | 1016.5 |
| 20260905204329 | 20 | 40 | 0.0 | 3.2 | 0.00 | 0.05 | 0.05 | 85 | 1016.6 |
| 20260905203827 | 20 | 29 | 1.6 | 3.2 | 0.00 | 0.05 | 0.05 | 85 | 1016.7 |
| 20260905203323 | 20 | 28 | 0.0 | 3.2 | 0.00 | 0.05 | 0.05 | 84 | 1016.7 |
| 20260905202819 | 19 | 32 | 0.0 | 1.6 | 0.00 | 0.05 | 0.05 | 87 | 1016.6 |
| 20260905202313 | 19 | 50 | 1.6 | 1.6 | 0.05 | 0.05 | 0.05 | 86 | 1016.4 |
| 20260905201809 | 20 | 113 | 0.0 | 1.6 | 0.13 | 0.05 | 0.05 | 86 | 1016.5 |
| 20260905201304 | 20 | 117 | 1.6 | 3.2 | 0.18 | 0.03 | 0.03 | 83 | 1016.3 |
| 20260905200759 | 20 | 55 | 0.0 | 3.2 | 0.13 | 0.03 | 0.03 | 78 | 1016.4 |
| 20260905200255 | 20 | 173 | 0.0 | 3.2 | 0.00 | 0.00 | 0.00 | 81 | 1016.5 |
| 20260905195752 | 20 | 181 | 0.0 | 1.6 | 0.00 | 0.00 | 0.00 | 83 | 1016.3 |
| 20260905195248 | 20 | 185 | 3.2 | 3.2 | 0.00 | 0.00 | 0.00 | 84 | 1016.3 |
| 20260905194743 | 20 | 152 | 3.2 | 3.2 | 0.00 | 0.00 | 0.00 | 84 | 1016.3 |
| 20260905194243 | 19 | 119 | 1.6 | 3.2 | 0.00 | 0.00 | 0.00 | 85 | 1016.4 |
| 20260905193742 | 19 | 144 | 1.6 | 3.2 | 0.00 | 0.00 | 0.00 | 87 | 1016.5 |
| 20260905193238 | 19 | 113 | 0.0 | 3.2 | 0.00 | 0.00 | 0.00 | 84 | 1016.3 |
| 20260905192733 | 19 | 130 | 1.6 | 3.2 | 0.00 | 0.00 | 0.00 | 80 | 1016.3 |
| 20260905192229 | 20 | 150 | 0.0 | 3.2 | 0.00 | 0.00 | 0.00 | 80 | 1016.4 |
| 20260905191728 | 20 | 134 | 1.6 | 1.6 | 0.00 | 0.00 | 0.00 | 76 | 1016.3 |
| 20260905191226 | 20 | 13 | 0.0 | 3.2 | 0.00 | 0.00 | 0.00 | 76 | 1016.3 |
| 20260905190726 | 20 | 217 | 0.0 | 1.6 | 0.00 | 0.00 | 0.00 | 76 | 1016.3 |
| 20260905190224 | 20 | 128 | 1.6 | 3.2 | 0.00 | 0.00 | 0.00 | 77 | 1016.4 |
| 20260905185724 | 20 | 85 | 3.2 | 3.2 | 0.00 | 0.00 | 0.00 | 77 | 1016.3 |
| 20260905185219 | 20 | 36 | 3.2 | 3.2 | 0.00 | 0.00 | 0.00 | 75 | 1016.2 |
| 20260905184713 | 20 | 25 | 4.8 | 4.8 | 0.00 | 0.00 | 0.00 | 76 | 1016.2 |
| 20260905184212 | 20 | 58 | 3.2 | 4.8 | 0.00 | 0.00 | 0.00 | 75 | 1016.4 |
| 20260905183712 | 20 | 34 | 0.0 | 4.8 | 0.00 | 0.00 | 0.00 | 73 | 1016.1 |
| 20260905183207 | 21 | 17 | 1.6 | 3.2 | 0.00 | 0.00 | 0.00 | 73 | 1016.5 |
| 20260905182707 | 21 | 37 | 0.0 | 1.6 | 0.00 | 0.00 | 0.00 | 73 | 1016.3 |
| 20260905182206 | 21 | 43 | 0.0 | 3.2 | 0.00 | 0.00 | 0.00 | 75 | 1016.2 |
| 20260905181702 | 21 | 77 | 0.0 | 1.6 | 0.00 | 0.00 | 0.00 | 75 | 1016.2 |
| 20260905181201 | 21 | 50 | 0.0 | 3.2 | 0.00 | 0.00 | 0.00 | 71 | 1016.3 |
| 20260905180655 | 21 | 88 | 1.6 | 3.2 | 0.00 | 0.00 | 0.00 | 71 | 1016.4 |
| 20260905180151 | 21 | 69 | 0.0 | 1.6 | 0.00 | 0.00 | 0.00 | 71 | 1016.4 |
| 20260905175650 | 21 | 39 | 1.6 | 3.2 | 0.00 | 0.00 | 0.00 | 70 | 1016.2 |
| 20260905175145 | 21 | 38 | 1.6 | 3.2 | 0.00 | 0.00 | 0.00 | 66 | 1016.2 |
| 20260905174641 | 21 | 23 | 3.2 | 3.2 | 0.00 | 0.00 | 0.00 | 67 | 1016.3 |
| 20260905174136 | 21 | 309 | 1.6 | 3.2 | 0.00 | 0.00 | 0.00 | 63 | 1016.2 |
| 20260905173632 | 22 | 310 | 1.6 | 3.2 | 0.00 | 0.00 | 0.00 | 63 | 1016.1 |
| 20260905173128 | 22 | 44 | 1.6 | 3.2 | 0.00 | 0.00 | 0.00 | 64 | 1015.8 |
| 20260905172626 | 21 | 208 | 4.8 | 8.0 | 0.00 | 0.00 | 0.00 | 68 | 1016.0 |
| 20260905172121 | 21 | 205 | 6.4 | 6.4 | 0.00 | 0.00 | 0.00 | 65 | 1016.0 |
| 20260905171618 | 22 | 238 | 1.6 | 8.0 | 0.00 | 0.00 | 0.00 | 65 | 1016.1 |
| 20260905171114 | 21 | 198 | 4.8 | 4.8 | 0.00 | 0.00 | 0.00 | 69 | 1016.2 |
| 20260905170610 | 21 | 78 | 3.2 | 4.8 | 0.00 | 0.00 | 0.00 | 70 | 1016.1 |
| 20260905170106 | 21 | 66 | 3.2 | 4.8 | 0.00 | 0.00 | 0.00 | 68 | 1016.0 |
| 20260905165605 | 21 | 282 | 1.6 | 6.4 | 0.00 | 0.00 | 0.00 | 68 | 1016.0 |
| 20260905165101 | 22 | 198 | 4.8 | 8.0 | 0.00 | 0.00 | 0.00 | 68 | 1016.0 |
| 20260905164556 | 21 | 159 | 3.2 | 3.2 | 0.00 | 0.00 | 0.00 | 70 | 1016.0 |
| 20260905164056 | 20 | 127 | 1.6 | 8.0 | 0.00 | 0.00 | 0.00 | 71 | 1016.1 |
| 20260905163552 | 20 | 196 | 6.4 | 6.4 | 0.00 | 0.00 | 0.00 | 70 | 1016.2 |
| 20260905163048 | 20 | 216 | 3.2 | 6.4 | 0.00 | 0.00 | 0.00 | 69 | 1016.2 |
| 20260905162544 | 20 | 24 | 4.8 | 4.8 | 0.00 | 0.00 | 0.00 | 71 | 1016.2 |
| 20260905162043 | 20 | 252 | 0.0 | 4.8 | 0.00 | 0.00 | 0.00 | 72 | 1016.4 |
| 20260905161543 | 20 | 198 | 4.8 | 8.0 | 0.00 | 0.00 | 0.00 | 70 | 1016.3 |
| 20260905161041 | 21 | 154 | 4.8 | 6.4 | 0.00 | 0.00 | 0.00 | 69 | 1016.2 |
| 20260905160539 | 20 | 76 | 1.6 | 6.4 | 0.00 | 0.00 | 0.00 | 69 | 1016.2 |
| 20260905160034 | 20 | 229 | 3.2 | 3.2 | 0.00 | 0.00 | 0.00 | 72 | 1016.4 |
| 20260905155534 | 20 | 303 | 3.2 | 4.8 | 0.00 | 0.00 | 0.00 | 71 | 1016.3 |
| 20260905155033 | 20 | 254 | 3.2 | 4.8 | 0.00 | 0.00 | 0.00 | 70 | 1016.3 |
| 20260905154528 | 20 | 196 | 4.8 | 14.5 | 0.00 | 0.00 | 0.00 | 73 | 1016.3 |
| 20260905154024 | 20 | 176 | 3.2 | 12.9 | 0.00 | 0.00 | 0.00 | 70 | 1016.5 |
| 20260905153520 | 20 | 200 | 3.2 | 6.4 | 0.00 | 0.00 | 0.00 | 72 | 1016.4 |
| 20260905153019 | 21 | 180 | 3.2 | 6.4 | 0.00 | 0.00 | 0.00 | 70 | 1016.3 |
| 20260905152519 | 20 | 242 | 3.2 | 9.7 | 0.00 | 0.00 | 0.00 | 70 | 1016.3 |
| 20260905152014 | 20 | 194 | 4.8 | 9.7 | 0.00 | 0.00 | 0.00 | 68 | 1016.2 |
| 20260905151510 | 20 | 304 | 3.2 | 4.8 | 0.00 | 0.00 | 0.00 | 70 | 1016.4 |
| 20260905151005 | 20 | 175 | 3.2 | 9.7 | 0.00 | 0.00 | 0.00 | 71 | 1016.3 |
| 20260905150500 | 20 | 209 | 4.8 | 8.0 | 0.00 | 0.00 | 0.00 | 71 | 1016.1 |
| 20260905145956 | 20 | 196 | 6.4 | 9.7 | 0.00 | 0.00 | 0.00 | 72 | 1016.2 |
| 20260905145451 | 20 | 184 | 6.4 | 8.0 | 0.00 | 0.00 | 0.00 | 72 | 1016.4 |
| 20260905144950 | 20 | 203 | 3.2 | 11.3 | 0.00 | 0.00 | 0.00 | 77 | 1016.4 |
| 20260905144446 | 19 | 192 | 3.2 | 19.3 | 0.00 | 0.00 | 0.00 | 76 | 1016.2 |
| 20260905143945 | 20 | 203 | 9.7 | 14.5 | 0.00 | 0.00 | 0.00 | 74 | 1016.3 |
| 20260905143443 | 20 | 184 | 6.4 | 14.5 | 0.00 | 0.00 | 0.00 | 76 | 1016.3 |
| 20260905142939 | 20 | 211 | 8.0 | 12.9 | 0.00 | 0.00 | 0.00 | 75 | 1016.4 |
| 20260905142437 | 19 | 187 | 3.2 | 14.5 | 0.00 | 0.00 | 0.00 | 75 | 1016.4 |
| 20260905141933 | 19 | 201 | 6.4 | 12.9 | 0.00 | 0.00 | 0.00 | 75 | 1016.3 |
| 20260905141428 | 19 | 159 | 3.2 | 9.7 | 0.00 | 0.00 | 0.00 | 77 | 1016.6 |
| 20260905140924 | 18 | 210 | 9.7 | 14.5 | 0.00 | 0.00 | 0.00 | 79 | 1016.5 |
| 20260905140419 | 19 | 200 | 8.0 | 9.7 | 0.00 | 0.00 | 0.00 | 75 | 1016.4 |
| 20260905135918 | 18 | 303 | 3.2 | 11.3 | 0.00 | 0.00 | 0.00 | 77 | 1016.5 |
| 20260905135414 | 18 | 159 | 4.8 | 8.0 | 0.00 | 0.00 | 0.00 | 78 | 1016.4 |
| 20260905134909 | 18 | 230 | 17.7 | 19.3 | 0.00 | 0.00 | 0.00 | 77 | 1016.5 |
| 20260905134408 | 18 | 328 | 3.2 | 8.0 | 0.00 | 0.00 | 0.00 | 78 | 1016.6 |
| 20260905133903 | 18 | 131 | 3.2 | 9.7 | 0.00 | 0.00 | 0.00 | 76 | 1016.6 |
| 20260905133358 | 18 | 323 | 0.0 | 12.9 | 0.00 | 0.00 | 0.00 | 77 | 1016.4 |
| 20260905132857 | 18 | 219 | 4.8 | 14.5 | 0.00 | 0.00 | 0.00 | 79 | 1016.4 |
| 20260905132353 | 18 | 239 | 6.4 | 12.9 | 0.00 | 0.00 | 0.00 | 79 | 1016.5 |
| 20260905131852 | 18 | 220 | 9.7 | 12.9 | 0.00 | 0.00 | 0.00 | 79 | 1016.3 |
| 20260905131348 | 18 | 281 | 1.6 | 9.7 | 0.00 | 0.00 | 0.00 | 80 | 1016.5 |
| 20260905130843 | 18 | 237 | 4.8 | 12.9 | 0.00 | 0.00 | 0.00 | 81 | 1016.4 |
| 20260905130341 | 17 | 269 | 0.0 | 17.7 | 0.00 | 0.00 | 0.00 | 80 | 1016.5 |
| 20260905125837 | 17 | 180 | 4.8 | 9.7 | 0.00 | 0.00 | 0.00 | 82 | 1016.6 |
| 20260905125332 | 17 | 309 | 4.8 | 4.8 | 0.00 | 0.00 | 0.00 | 84 | 1016.3 |
| 20260905124828 | 17 | 173 | 3.2 | 16.1 | 0.00 | 0.00 | 0.00 | 85 | 1016.3 |
| 20260905124325 | 16 | 197 | 4.8 | 11.3 | 0.00 | 0.00 | 0.00 | 85 | 1016.4 |
| 20260905123824 | 16 | 223 | 12.9 | 16.1 | 0.00 | 0.00 | 0.00 | 86 | 1016.3 |
| 20260905123321 | 16 | 156 | 3.2 | 6.4 | 0.00 | 0.00 | 0.00 | 87 | 1016.5 |
| 20260905122821 | 16 | 210 | 3.2 | 6.4 | 0.00 | 0.00 | 0.00 | 87 | 1016.3 |
| 20260905122320 | 16 | 230 | 4.8 | 6.4 | 0.00 | 0.00 | 0.00 | 87 | 1016.4 |
| 20260905121816 | 16 | 208 | 0.0 | 3.2 | 0.00 | 0.00 | 0.00 | 88 | 1016.2 |
| 20260905121312 | 16 | 107 | 1.6 | 3.2 | 0.00 | 0.00 | 0.00 | 89 | 1016.1 |
| 20260905120810 | 16 | 226 | 0.0 | 3.2 | 0.00 | 0.00 | 0.00 | 89 | 1016.1 |
| 20260905120305 | 15 | 169 | 1.6 | 3.2 | 0.00 | 0.00 | 0.00 | 91 | 1016.0 |
| 20260905115801 | 15 | 126 | 1.6 | 1.6 | 0.00 | 0.00 | 0.00 | 91 | 1016.3 |
| 20260905115300 | 15 | 66 | 0.0 | 1.6 | 0.00 | 0.00 | 0.00 | 92 | 1015.9 |
| 20260905114759 | 15 | 89 | 0.0 | 1.6 | 0.00 | 0.00 | 0.00 | 92 | 1016.2 |
| 20260905114259 | 15 | 353 | 3.2 | 3.2 | 0.00 | 0.00 | 0.00 | 91 | 1016.1 |
| 20260905113758 | 15 | 160 | 1.6 | 3.2 | 0.00 | 0.00 | 0.00 | 91 | 1016.0 |
| 20260905113254 | 15 | 123 | 1.6 | 3.2 | 0.00 | 0.00 | 0.00 | 92 | 1015.9 |
| 20260905112749 | 15 | 131 | 0.0 | 3.2 | 0.00 | 0.00 | 0.00 | 92 | 1015.8 |
| 20260905112249 | 15 | 135 | 0.0 | 3.2 | 0.00 | 0.00 | 0.00 | 92 | 1016.0 |
| 20260905111745 | 15 | 184 | 3.2 | 3.2 | 0.00 | 0.00 | 0.00 | 94 | 1015.8 |
| 20260905111239 | 14 | 168 | 0.0 | 4.8 | 0.00 | 0.00 | 0.00 | 96 | 1015.8 |
| 20260905110738 | 13 | 307 | 0.0 | 1.6 | 0.00 | 0.00 | 0.00 | 97 | 1015.6 |
| 20260905110232 | 13 | 38 | 0.0 | 3.2 | 0.00 | 0.00 | 0.00 | 96 | 1015.7 |
| 20260905105728 | 13 | 38 | 3.2 | 3.2 | 0.00 | 0.00 | 0.00 | 96 | 1015.7 |
| 20260905105227 | 13 | 23 | 3.2 | 4.8 | 0.00 | 0.00 | 0.00 | 96 | 1015.6 |
| 20260905104722 | 13 | 28 | 3.2 | 3.2 | 0.00 | 0.00 | 0.00 | 95 | 1015.5 |
| 20260905104218 | 13 | 38 | 3.2 | 4.8 | 0.00 | 0.00 | 0.00 | 95 | 1015.6 |
| 20260905103712 | 13 | 31 | 3.2 | 4.8 | 0.00 | 0.00 | 0.00 | 94 | 1015.6 |
| 20260905103208 | 13 | 113 | 0.0 | 3.2 | 0.00 | 0.00 | 0.00 | 94 | 1015.4 |
| 20260905102704 | 13 | 152 | 0.0 | 4.8 | 0.00 | 0.00 | 0.00 | 95 | 1015.7 |
| 20260905102201 | 13 | 137 | 0.0 | 3.2 | 0.00 | 0.00 | 0.00 | 96 | 1015.5 |
| 20260905101659 | 13 | 124 | 1.6 | 3.2 | 0.00 | 0.00 | 0.00 | 97 | 1015.5 |
| 20260905101158 | 13 | 129 | 0.0 | 3.2 | 0.00 | 0.00 | 0.00 | 97 | 1015.5 |
| 20260905100654 | 13 | 81 | 1.6 | 1.6 | 0.00 | 0.00 | 0.00 | 97 | 1015.6 |
| 20260905100149 | 13 | 89 | 0.0 | 1.6 | 0.00 | 0.00 | 0.00 | 97 | 1015.6 |
| 20260905095648 | 13 | 39 | 3.2 | 4.8 | 0.00 | 0.00 | 0.00 | 97 | 1015.6 |
| 20260905095143 | 13 | 52 | 3.2 | 3.2 | 0.00 | 0.00 | 0.00 | 97 | 1015.4 |
| 20260905094638 | 13 | 62 | 1.6 | 3.2 | 0.00 | 0.00 | 0.00 | 97 | 1015.8 |
| 20260905094137 | 13 | 41 | 3.2 | 3.2 | 0.00 | 0.00 | 0.00 | 97 | 1015.6 |
| 20260905093632 | 13 | 17 | 1.6 | 4.8 | 0.00 | 0.00 | 0.00 | 97 | 1015.5 |
| 20260905093129 | 13 | 24 | 1.6 | 3.2 | 0.00 | 0.00 | 0.00 | 97 | 1015.6 |
| 20260905092628 | 13 | 27 | 0.0 | 3.2 | 0.00 | 0.00 | 0.00 | 96 | 1015.3 |
| 20260905092124 | 13 | 23 | 3.2 | 4.8 | 0.00 | 0.00 | 0.00 | 97 | 1015.3 |
| 20260905091624 | 13 | 42 | 3.2 | 4.8 | 0.00 | 0.00 | 0.00 | 97 | 1015.4 |
| 20260905091123 | 13 | 37 | 3.2 | 3.2 | 0.00 | 0.00 | 0.00 | 97 | 1015.0 |
| 20260905090618 | 13 | 61 | 0.0 | 3.2 | 0.00 | 0.00 | 0.00 | 97 | 1015.2 |
| 20260905090114 | 13 | 42 | 3.2 | 3.2 | 0.00 | 0.00 | 0.00 | 97 | 1015.0 |
| 20260905085612 | 13 | 68 | 3.2 | 3.2 | 0.00 | 0.00 | 0.00 | 97 | 1015.2 |
| 20260905085108 | 13 | 35 | 0.0 | 1.6 | 0.00 | 0.00 | 0.00 | 97 | 1015.1 |
| 20260905084608 | 13 | 37 | 0.0 | 1.6 | 0.00 | 0.00 | 0.00 | 97 | 1015.2 |
| 20260905084103 | 13 | 67 | 0.0 | 0.0 | 0.00 | 0.00 | 0.00 | 96 | 1015.1 |
| 20260905083603 | 13 | 89 | 0.0 | 3.2 | 0.00 | 0.00 | 0.00 | 96 | 1015.0 |
| 20260905083100 | 13 | 87 | 1.6 | 3.2 | 0.00 | 0.00 | 0.00 | 96 | 1015.1 |
| 20260905082554 | 13 | 117 | 0.0 | 3.2 | 0.00 | 0.00 | 0.00 | 97 | 1015.2 |
| 20260905082051 | 13 | 37 | 0.0 | 1.6 | 0.00 | 0.00 | 0.00 | 96 | 1015.1 |
| 20260905081549 | 13 | 41 | 0.0 | 3.2 | 0.00 | 0.00 | 0.00 | 96 | 1015.1 |
| 20260905081045 | 13 | 24 | 1.6 | 3.2 | 0.00 | 0.00 | 0.00 | 96 | 1015.3 |
| 20260905080544 | 13 | 22 | 1.6 | 4.8 | 0.00 | 0.00 | 0.00 | 96 | 1015.2 |
| 20260905080040 | 14 | 39 | 0.0 | 3.2 | 0.00 | 0.00 | 0.00 | 96 | 1015.3 |
| 20260905075538 | 14 | 18 | 1.6 | 3.2 | 0.00 | 0.00 | 0.00 | 96 | 1015.1 |
| 20260905075039 | 14 | 30 | 3.2 | 3.2 | 0.00 | 0.00 | 0.00 | 96 | 1015.2 |
| 20260905074538 | 14 | 14 | 3.2 | 3.2 | 0.00 | 0.00 | 0.00 | 96 | 1015.4 |
| 20260905074034 | 14 | 28 | 3.2 | 4.8 | 0.00 | 0.00 | 0.00 | 96 | 1015.3 |
| 20260905073529 | 14 | 32 | 3.2 | 3.2 | 0.00 | 0.00 | 0.00 | 96 | 1015.5 |
| 20260905073025 | 14 | 33 | 3.2 | 3.2 | 0.00 | 0.00 | 0.00 | 96 | 1015.2 |
| 20260905072524 | 14 | 22 | 3.2 | 4.8 | 0.00 | 0.00 | 0.00 | 96 | 1015.4 |
| 20260905072020 | 14 | 44 | 3.2 | 3.2 | 0.00 | 0.00 | 0.00 | 96 | 1015.4 |
| 20260905071517 | 14 | 69 | 3.2 | 3.2 | 0.00 | 0.00 | 0.00 | 96 | 1015.5 |
| 20260905071016 | 14 | 74 | 3.2 | 3.2 | 0.00 | 0.00 | 0.00 | 96 | 1015.4 |
| 20260905070512 | 14 | 68 | 1.6 | 3.2 | 0.00 | 0.00 | 0.00 | 96 | 1015.6 |
| 20260905070008 | 14 | 57 | 1.6 | 3.2 | 0.00 | 0.00 | 0.00 | 95 | 1015.6 |
| 20260905065505 | 14 | 34 | 1.6 | 3.2 | 0.00 | 0.00 | 0.00 | 95 | 1015.6 |
| 20260905065001 | 14 | 5 | 1.6 | 3.2 | 0.00 | 0.00 | 0.00 | 95 | 1015.5 |
| 20260905064455 | 14 | 43 | 1.6 | 3.2 | 0.00 | 0.00 | 0.00 | 95 | 1015.6 |
| 20260905063950 | 14 | 37 | 0.0 | 3.2 | 0.00 | 0.00 | 0.00 | 95 | 1015.6 |
| 20260905063445 | 14 | 46 | 1.6 | 3.2 | 0.00 | 0.00 | 0.00 | 95 | 1015.7 |
| 20260905062941 | 14 | 57 | 3.2 | 3.2 | 0.00 | 0.00 | 0.00 | 95 | 1015.5 |
| 20260905062441 | 14 | 81 | 1.6 | 3.2 | 0.00 | 0.00 | 0.00 | 95 | 1015.6 |
| 20260905061936 | 14 | 36 | 3.2 | 3.2 | 0.00 | 0.00 | 0.00 | 94 | 1015.6 |
| 20260905061436 | 15 | 27 | 1.6 | 3.2 | 0.00 | 0.00 | 0.00 | 94 | 1015.7 |
| 20260905060936 | 15 | 28 | 3.2 | 3.2 | 0.00 | 0.00 | 0.00 | 94 | 1015.6 |
| 20260905060432 | 15 | 27 | 3.2 | 3.2 | 0.00 | 0.00 | 0.00 | 94 | 1015.8 |
| 20260905055931 | 15 | 32 | 1.6 | 3.2 | 0.00 | 0.00 | 0.00 | 94 | 1015.9 |
| 20260905055426 | 15 | 37 | 3.2 | 4.8 | 0.00 | 0.00 | 0.00 | 93 | 1015.7 |
| 20260905054925 | 15 | 26 | 3.2 | 3.2 | 0.00 | 0.00 | 0.00 | 93 | 1016.0 |
| 20260905054421 | 15 | 18 | 3.2 | 3.2 | 0.00 | 0.00 | 0.00 | 92 | 1015.9 |
| 20260905053921 | 15 | 14 | 3.2 | 3.2 | 0.00 | 0.00 | 0.00 | 91 | 1016.2 |
| 20260905053416 | 15 | 16 | 3.2 | 3.2 | 0.00 | 0.00 | 0.00 | 90 | 1016.0 |
| 20260905052911 | 16 | 9 | 1.6 | 3.2 | 0.00 | 0.00 | 0.00 | 89 | 1016.1 |
| 20260905052411 | 16 | 17 | 1.6 | 3.2 | 0.00 | 0.00 | 0.00 | 89 | 1016.0 |
| 20260905051910 | 15 | 55 | 0.0 | 1.6 | 0.00 | 0.00 | 0.00 | 90 | 1016.2 |
| 20260905051407 | 15 | 44 | 0.0 | 1.6 | 0.00 | 0.00 | 0.00 | 90 | 1016.0 |
| 20260905050904 | 15 | 15 | 3.2 | 3.2 | 0.00 | 0.00 | 0.00 | 91 | 1016.3 |
| 20260905050359 | 16 | 45 | 1.6 | 3.2 | 0.00 | 0.00 | 0.00 | 90 | 1016.1 |
| 20260905045854 | 15 | 77 | 1.6 | 3.2 | 0.00 | 0.00 | 0.00 | 92 | 1016.2 |
| 20260905045349 | 15 | 77 | 1.6 | 3.2 | 0.00 | 0.00 | 0.00 | 92 | 1016.2 |
| 20260905044845 | 15 | 80 | 0.0 | 1.6 | 0.00 | 0.00 | 0.00 | 92 | 1016.3 |
| 20260905044340 | 15 | 55 | 0.0 | 1.6 | 0.00 | 0.00 | 0.00 | 92 | 1016.2 |
| 20260905043838 | 15 | 115 | 1.6 | 1.6 | 0.00 | 0.00 | 0.00 | 91 | 1016.1 |
| 20260905043334 | 15 | 89 | 0.0 | 0.0 | 0.00 | 0.00 | 0.00 | 90 | 1016.3 |
| 20260905042829 | 16 | 76 | 0.0 | 1.6 | 0.00 | 0.00 | 0.00 | 90 | 1016.0 |
| 20260905042328 | 16 | 135 | 0.0 | 0.0 | 0.00 | 0.00 | 0.00 | 90 | 1016.2 |